Lokaal brand risico:
CBI


Regionaal brand risico: Meer informatie


Weerstation
Sluispark-LeuvenLeuven-Sluispark



Nabijgelegen vliegvelden - METAR rapporten

   
EBBR - Wilsele bij Leuven
Gewijzigd: 24-04-2019 21:20
Kleine buien, Regen, Grotendeels bewolkt    Wind: ZZO 18.5 km/h
Kleine buien, Regen, Grotendeels bewolkt
Wind: Wind: ZZO 18.5 km/h
Temperatuur: 12°C
Dauwpunt: 10°C
Vochtigheid: 88%
Barometer: 1002 hPa
Bewolking: Grotendeels bewolkt
Zicht: meer dan 10 km
Bewolking: Licht bewolkt 1066.8 m,
Grotendeels bewolkt 1341.1 m
EBBR 241920Z 16010KT 9999 -SHRA FEW035 BKN044 12/10 Q1002 TEMPO 4000 SHRA
EBAW - Antwerp
Gewijzigd: 24-04-2019 21:20
Wat regen mogelijk, Gedeeltelijk bewolkt    Wind: ZZO 16.7 km/h
Wat regen mogelijk, Gedeeltelijk bewolkt
Wind: Wind: ZZO 16.7 km/h
Temperatuur: 12°C
Dauwpunt: 11°C
Vochtigheid: 94%
Barometer: 1002 hPa
Bewolking: Gedeeltelijk bewolkt
Zicht: 7 km
Bewolking: Licht bewolkt 1066.8 m,
Gedeeltelijk bewolkt 1371.6 m
EBAW 241920Z 15009KT 7000 -RA FEW035 SCT045 12/11 Q1002 NOSIG
EBLG - Li├Ęge
Gewijzigd: 24-04-2019 21:20
Wat regen mogelijk, Licht bewolkt    Wind: Zuiden 14.8 km/h
Wat regen mogelijk, Licht bewolkt
Wind: Wind: Zuiden 14.8 km/h
Temperatuur: 11°C
Dauwpunt: 9°C
Vochtigheid: 88%
Barometer: 1004 hPa
Bewolking: Licht bewolkt
Zicht: meer dan 10 km
Bewolking: Licht bewolkt 914.4 m
EBLG 241920Z 17008KT 9999 -RA FEW030 11/09 Q1004 TEMPO 18025G35KT 4000 SHRA
EBCV - Mons/Bergen
Gewijzigd: 24-04-2019 21:25
Grotendeels bewolkt    Wind: Zuiden 14.8 km/h
Grotendeels bewolkt
Wind: Wind: Zuiden 14.8 km/h
Temperatuur: 13°C
Dauwpunt: 9°C
Vochtigheid: 77%
Barometer: 1002 hPa
Bewolking: Grotendeels bewolkt
Zicht: meer dan 10 km
Bewolking: Licht bewolkt 1493.5 m,
Grotendeels bewolkt 2956.6 m
EBCV 241925Z AUTO 17008KT 9999 FEW049/// BKN097/// 13/09 Q1002 BLU
EHBK - Maastricht
Gewijzigd: 24-04-2019 21:25
Kleine buien, Regen, Grotendeels bewolkt    Wind: Zuiden 20.4 km/h
Kleine buien, Regen, Grotendeels bewolkt
Wind: Wind: Zuiden 20.4 km/h
Temperatuur: 11°C
Dauwpunt: 8°C
Vochtigheid: 82%
Barometer: 1003 hPa
Bewolking: Grotendeels bewolkt
Zicht: meer dan 10 km
Bewolking: Grotendeels bewolkt 457.2 m
EHBK 241925Z AUTO 18011KT 140V210 9999 -SHRA BKN015CB 11/08 Q1003 TEMPO 7000 RA SHRA SCT040CB
ELLX - Luxemburg
Gewijzigd: 24-04-2019 21:20
Gedeeltelijk bewolkt    Wind: ZO 18.5 km/h
Gedeeltelijk bewolkt
Wind: Wind: ZO 18.5 km/h
Temperatuur: 9°C
Voelt als: 6°C
Dauwpunt: 7°C
Vochtigheid: 87%
Barometer: 1005 hPa
Bewolking: Gedeeltelijk bewolkt
Zicht: meer dan 10 km
Bewolking: Gedeeltelijk bewolkt 609.6 m
ELLX 241920Z 14010KT 9999 SCT020 09/07 Q1005 RERA NOSIG
EBOS - Oostende
Gewijzigd: 24-04-2019 21:20
Kleine buien, Regen, Grotendeels bewolkt    Wind: ZZO 16.7 km/h
Kleine buien, Regen, Grotendeels bewolkt
Wind: Wind: ZZO 16.7 km/h
Temperatuur: 12°C
Dauwpunt: 10°C
Vochtigheid: 88%
Barometer: 1000 hPa
Bewolking: Grotendeels bewolkt
Zicht: meer dan 10 km
Bewolking: Licht bewolkt 91.4 m,
Gedeeltelijk bewolkt 792.5 m,
Grotendeels bewolkt 1463 m
EBOS 241920Z 16009KT 9999 -SHRA FEW003 SCT026TCU BKN048 12/10 Q1000 TEMPO 4000 SHRA
  

Script ontwikkeld door  Saratoga-weather.org Aangepast voor de template door  Weerstation Leuven

U vindt ons ook hier:

UK Metoffice

WeatherCloud

European Weather Network

Weather Underground

Benelux Weather Network

AWEKAS

WeatherlinkIP

Het Weer Aktueel

Apparatuur in gebruik:

Weer-station
Davis VP2 weatherstation

Weer-programma
Meteobridge

Weer-computer
D-Link DIR-505

Webleverancier
Robohost

Davis VP2 weatherstation

Meteobridge

D-Link DIR-505

Robohost